Time;durP1;ratioP1;P1;durP2;ratioP2;P2;SDS_P1;SDS_P2;PMS_P1;PMS_P2;Temp;Humidity;BMP_temperature;BMP_pressure;BME280_temperature;BME280_humidity;BME280_pressure;Samples;Min_cycle;Max_cycle;Signal;HPM_P1;HPM_P2
2023/08/05 00:00:29;;;;;;;;;;;;;;;18.49;65.49;96635.19;6173888;28;19926;-70
2023/08/05 00:03:32;;;;;;;;;;;;;;;18.46;65.56;96635.50;6175338;28;19925;-71
2023/08/05 00:06:33;;;;;;;;;;;;;;;18.46;65.58;96636.34;6174354;28;19926;-71
2023/08/05 00:09:37;;;;;;;;;;;;;;;18.43;65.56;96641.09;6174587;28;19930;-70
2023/08/05 00:12:40;;;;;;;;;;;;;;;18.47;66.45;96645.97;6149193;28;19934;-71
2023/08/05 00:15:43;;;;;;;;;;;;;;;18.52;65.75;96645.53;6150866;28;20088;-70
2023/08/05 00:18:47;;;;;;;;;;;;;;;18.48;65.64;96649.47;6150416;28;19927;-71
2023/08/05 00:21:48;;;;;;;;;;;;;;;18.43;65.80;96662.41;6149381;28;20050;-71
2023/08/05 00:24:49;;;;;;;;;;;;;;;18.42;65.85;96660.75;6150388;28;20400;-71
2023/08/05 00:27:53;;;;;;;;;;;;;;;18.35;65.69;96658.72;6150824;28;19926;-71
2023/08/05 00:30:54;;;;;;;;;;;;;;;18.39;65.19;96673.38;6150641;28;20430;-71
2023/08/05 00:33:55;;;;;;;;;;;;;;;18.43;64.96;96665.09;6150110;28;19927;-72
2023/08/05 00:36:58;;;;;;;;;;;;;;;18.48;64.98;96668.13;6150777;29;19926;-70
2023/08/05 00:40:02;;;;;;;;;;;;;;;18.47;64.72;96671.78;6149498;29;19926;-72
2023/08/05 00:43:03;;;;;;;;;;;;;;;18.42;64.90;96671.41;6148814;28;20033;-71
2023/08/05 00:46:08;;;;;;;;;;;;;;;18.34;65.24;96670.38;6148817;28;19927;-70
2023/08/05 00:49:12;;;;;;;;;;;;;;;18.33;65.12;96668.66;6149767;28;19945;-71
2023/08/05 00:52:15;;;;;;;;;;;;;;;18.31;65.77;96675.13;6150104;28;19966;-71
2023/08/05 00:55:16;;;;;;;;;;;;;;;18.32;65.42;96660.84;6149829;28;20382;-70
2023/08/05 00:58:22;;;;;;;;;;;;;;;18.30;65.16;96668.16;6149195;28;19923;-71
2023/08/05 01:01:28;;;;;;;;;;;;;;;18.32;65.95;96671.50;6150032;28;19926;-71
2023/08/05 01:04:29;;;;;;;;;;;;;;;18.38;65.33;96676.22;6149528;28;19932;-71
2023/08/05 01:07:32;;;;;;;;;;;;;;;18.40;65.68;96680.41;6150073;28;20579;-70
2023/08/05 01:10:33;;;;;;;;;;;;;;;18.45;65.51;96681.75;6153604;28;20052;-71
2023/08/05 01:13:37;;;;;;;;;;;;;;;18.52;65.00;96688.16;6173599;28;19926;-70
2023/08/05 01:16:38;;;;;;;;;;;;;;;18.62;65.32;96688.91;6172540;28;19925;-71
2023/08/05 01:19:42;;;;;;;;;;;;;;;18.73;64.59;96696.66;6172852;28;20407;-71
2023/08/05 01:22:43;;;;;;;;;;;;;;;18.84;63.84;96704.44;6172927;28;19926;-70
2023/08/05 01:25:47;;;;;;;;;;;;;;;18.94;63.79;96703.50;6156515;28;19926;-70
2023/08/05 01:28:51;;;;;;;;;;;;;;;18.99;63.69;96701.19;6173551;28;20072;-71
2023/08/05 01:31:55;;;;;;;;;;;;;;;19.01;63.94;96699.22;6172970;28;19930;-72
2023/08/05 01:35:00;;;;;;;;;;;;;;;18.95;63.85;96706.03;6173264;28;19926;-71
2023/08/05 01:38:04;;;;;;;;;;;;;;;18.92;64.22;96710.84;6172193;28;19929;-71
2023/08/05 01:41:07;;;;;;;;;;;;;;;18.95;64.10;96705.19;6172711;28;19926;-71
2023/08/05 01:44:10;;;;;;;;;;;;;;;19.01;64.33;96710.72;6172299;28;20472;-70
2023/08/05 01:47:18;;;;;;;;;;;;;;;19.12;63.63;96706.97;6173184;28;19986;-71
2023/08/05 01:50:42;;;;;;;;;;;;;;;19.22;63.74;96713.03;6155270;28;20352;-71
2023/08/05 01:53:50;;;;;;;;;;;;;;;19.35;63.17;96707.28;6156057;28;20396;-71
2023/08/05 01:56:53;;;;;;;;;;;;;;;19.50;62.90;96721.72;6172761;28;19926;-71
2023/08/05 01:59:56;;;;;;;;;;;;;;;19.66;62.50;96715.63;6171708;28;19938;-70
2023/08/05 02:03:02;;;;;;;;;;;;;;;19.79;62.66;96727.69;6172554;28;19926;-71
2023/08/05 02:06:05;;;;;;;;;;;;;;;19.89;61.95;96728.41;6172491;28;20069;-69
2023/08/05 02:09:09;;;;;;;;;;;;;;;19.95;62.13;96730.44;6172576;28;19926;-71
2023/08/05 02:12:13;;;;;;;;;;;;;;;20.03;62.19;96733.13;6138425;28;19926;-70
2023/08/05 02:15:16;;;;;;;;;;;;;;;19.96;62.27;96737.47;6171962;28;19933;-71
2023/08/05 02:18:22;;;;;;;;;;;;;;;19.95;62.14;96741.09;6172648;28;19926;-71
2023/08/05 02:21:25;;;;;;;;;;;;;;;19.98;62.23;96739.94;6172448;28;19926;-70
2023/08/05 02:24:30;;;;;;;;;;;;;;;20.01;62.07;96740.47;6172256;28;19926;-70
2023/08/05 02:27:31;;;;;;;;;;;;;;;20.08;61.93;96735.31;6154676;28;20423;-72
2023/08/05 02:30:32;;;;;;;;;;;;;;;20.11;61.93;96735.84;6171799;28;19933;-70
2023/08/05 02:33:36;;;;;;;;;;;;;;;20.21;61.86;96729.50;6172313;28;20460;-71
2023/08/05 02:36:39;;;;;;;;;;;;;;;20.28;61.59;96733.22;6172356;28;19925;-71
2023/08/05 02:39:40;;;;;;;;;;;;;;;20.36;61.28;96735.91;6171737;28;19929;-70
2023/08/05 02:42:44;;;;;;;;;;;;;;;20.46;60.99;96738.41;6171546;28;19949;-71
2023/08/05 02:45:53;;;;;;;;;;;;;;;20.45;61.26;96740.25;6172542;28;19926;-71
2023/08/05 02:48:57;;;;;;;;;;;;;;;20.49;61.24;96733.56;6172082;28;19922;-71
2023/08/05 02:52:00;;;;;;;;;;;;;;;20.63;60.74;96740.97;6171877;28;19933;-70
2023/08/05 02:55:04;;;;;;;;;;;;;;;20.68;60.54;96747.66;6171557;28;20008;-71
2023/08/05 02:58:12;;;;;;;;;;;;;;;20.76;60.25;96753.03;6171985;28;19922;-71
2023/08/05 03:01:16;;;;;;;;;;;;;;;20.80;60.03;96751.69;6171928;28;19926;-71
2023/08/05 03:04:17;;;;;;;;;;;;;;;20.83;60.03;96757.56;6154005;28;20418;-71
2023/08/05 03:07:18;;;;;;;;;;;;;;;20.97;59.58;96748.00;6171848;28;19926;-71
2023/08/05 03:10:23;;;;;;;;;;;;;;;21.01;59.34;96744.00;6173009;28;19947;-72
2023/08/05 03:13:28;;;;;;;;;;;;;;;21.04;59.41;96753.53;6176480;28;19930;-71
2023/08/05 03:16:34;;;;;;;;;;;;;;;21.19;59.07;96756.38;6176446;28;19926;-71
2023/08/05 03:19:35;;;;;;;;;;;;;;;21.23;58.81;96757.69;6176360;28;19945;-71
2023/08/05 03:22:39;;;;;;;;;;;;;;;21.25;58.91;96750.34;6176062;28;19981;-71
2023/08/05 03:25:45;;;;;;;;;;;;;;;21.36;58.62;96747.31;6159401;28;19926;-71
2023/08/05 03:28:50;;;;;;;;;;;;;;;21.45;58.29;96748.97;6176203;28;20308;-71
2023/08/05 03:31:55;;;;;;;;;;;;;;;21.54;57.88;96755.16;6175801;28;19926;-71
2023/08/05 03:34:56;;;;;;;;;;;;;;;21.62;57.77;96767.69;6175174;28;19933;-71
2023/08/05 03:38:01;;;;;;;;;;;;;;;21.73;57.35;96767.34;6175960;28;20419;-71
2023/08/05 03:41:04;;;;;;;;;;;;;;;21.88;57.02;96768.31;6175347;28;20020;-71
2023/08/05 03:44:05;;;;;;;;;;;;;;;21.88;57.09;96762.09;6175692;28;19930;-71
2023/08/05 03:47:08;;;;;;;;;;;;;;;21.94;56.88;96756.06;6174804;28;19934;-71
2023/08/05 03:50:16;;;;;;;;;;;;;;;22.09;56.58;96758.84;6175812;28;20436;-70
2023/08/05 03:53:21;;;;;;;;;;;;;;;22.20;55.98;96763.84;6175321;28;19926;-70
2023/08/05 03:56:24;;;;;;;;;;;;;;;22.34;55.42;96757.75;6175364;28;19933;-71
2023/08/05 03:59:27;;;;;;;;;;;;;;;22.41;55.29;96764.06;6174928;28;19930;-72
2023/08/05 04:02:29;;;;;;;;;;;;;;;22.55;54.92;96758.94;6174530;28;20292;-72
2023/08/05 04:05:32;;;;;;;;;;;;;;;22.66;54.62;96761.22;6174725;28;19926;-71
2023/08/05 04:08:35;;;;;;;;;;;;;;;22.84;53.96;96758.25;6174272;28;20328;-71
2023/08/05 04:11:39;;;;;;;;;;;;;;;22.92;53.94;96763.53;6174546;28;20412;-71
2023/08/05 04:14:43;;;;;;;;;;;;;;;23.00;53.72;96763.53;6174956;28;20072;-71
2023/08/05 04:17:47;;;;;;;;;;;;;;;23.09;53.75;96756.22;6174780;28;19930;-71
2023/08/05 04:20:50;;;;;;;;;;;;;;;23.27;53.41;96763.97;6140931;28;19949;-70
2023/08/05 04:23:52;;;;;;;;;;;;;;;23.36;52.91;96767.41;6174081;28;19926;-71
2023/08/05 04:26:53;;;;;;;;;;;;;;;23.48;52.77;96765.94;6157413;28;19926;-72
2023/08/05 04:29:57;;;;;;;;;;;;;;;23.69;52.24;96768.75;6174633;28;19926;-72
2023/08/05 04:33:03;;;;;;;;;;;;;;;23.78;51.93;96772.22;6174485;28;20320;-71
2023/08/05 04:36:11;;;;;;;;;;;;;;;23.75;51.88;96772.59;6174821;28;20083;-73
2023/08/05 04:39:15;;;;;;;;;;;;;;;23.83;51.96;96769.78;6174285;28;19951;-72
2023/08/05 04:42:18;;;;;;;;;;;;;;;23.99;51.87;96768.78;6173961;28;19926;-70
2023/08/05 04:45:21;;;;;;;;;;;;;;;24.23;51.51;96772.19;6174094;28;19926;-71
2023/08/05 04:48:22;;;;;;;;;;;;;;;24.76;50.36;96770.97;6173208;28;20064;-72
2023/08/05 04:51:26;;;;;;;;;;;;;;;27.87;45.74;96774.50;6173742;28;19957;-72
2023/08/05 04:54:44;;;;;;;;;;;;;;;32.16;39.25;96792.34;6173765;28;20389;-73
2023/08/05 04:57:57;;;;;;;;;;;;;;;35.84;34.34;96799.81;6155791;28;19937;-73
2023/08/05 05:01:02;;;;;;;;;;;;;;;38.80;31.20;96805.03;6173936;28;19926;-72
2023/08/05 05:04:06;;;;;;;;;;;;;;;41.33;28.72;96808.75;6173836;28;19922;-73
2023/08/05 05:07:11;;;;;;;;;;;;;;;43.43;26.67;96808.44;6173819;28;19926;-72
2023/08/05 05:10:17;;;;;;;;;;;;;;;45.25;23.45;96803.00;6172855;28;19928;-73
2023/08/05 05:13:20;;;;;;;;;;;;;;;46.34;21.84;96813.81;6173621;28;19926;-72
2023/08/05 05:16:25;;;;;;;;;;;;;;;47.36;20.05;96811.16;6156354;28;20534;-72
2023/08/05 05:19:34;;;;;;;;;;;;;;;48.38;19.54;96812.50;6173558;28;19929;-72
2023/08/05 05:22:38;;;;;;;;;;;;;;;49.26;20.75;96812.19;6173482;28;20321;-72
2023/08/05 05:25:42;;;;;;;;;;;;;;;50.41;19.28;96810.66;6173401;28;19926;-73
2023/08/05 05:28:47;;;;;;;;;;;;;;;51.43;18.41;96816.31;6173478;28;20336;-72
2023/08/05 05:31:52;;;;;;;;;;;;;;;52.22;15.60;96813.09;6172717;28;19953;-73
2023/08/05 05:34:58;;;;;;;;;;;;;;;52.69;17.49;96809.13;6155052;28;20390;-73
2023/08/05 05:38:05;;;;;;;;;;;;;;;53.49;18.10;96816.72;6172957;28;19930;-72
2023/08/05 05:41:07;;;;;;;;;;;;;;;54.08;13.64;96820.69;6171878;28;19933;-72
2023/08/05 05:44:09;;;;;;;;;;;;;;;54.60;15.94;96818.75;6139750;28;19953;-72
2023/08/05 05:47:11;;;;;;;;;;;;;;;55.12;16.22;96813.13;6172415;28;20266;-72
2023/08/05 05:50:16;;;;;;;;;;;;;;;54.77;14.38;96816.50;6172664;28;20309;-72
2023/08/05 05:53:18;;;;;;;;;;;;;;;55.29;13.75;96811.63;6139193;28;19942;-72
2023/08/05 05:56:22;;;;;;;;;;;;;;;55.63;12.41;96812.19;6172774;28;20024;-71
2023/08/05 05:59:25;;;;;;;;;;;;;;;55.44;12.65;96810.50;6172826;28;19972;-72
2023/08/05 06:02:30;;;;;;;;;;;;;;;55.74;12.29;96800.94;6172621;28;19926;-72
2023/08/05 06:05:33;;;;;;;;;;;;;;;56.30;11.69;96810.81;6172788;28;20384;-72
2023/08/05 06:08:36;;;;;;;;;;;;;;;56.43;10.71;96803.56;6172708;28;19949;-72
2023/08/05 06:11:39;;;;;;;;;;;;;;;55.43;10.60;96794.75;6172043;28;20353;-72
2023/08/05 06:14:42;;;;;;;;;;;;;;;53.31;11.55;96788.34;6172416;28;19996;-73
2023/08/05 06:17:46;;;;;;;;;;;;;;;52.22;11.76;96789.81;6172241;28;20396;-71
2023/08/05 06:20:50;;;;;;;;;;;;;;;52.77;11.48;96792.38;6172487;28;19942;-72
2023/08/05 06:23:53;;;;;;;;;;;;;;;53.85;10.35;96795.50;6172012;28;20000;-72
2023/08/05 06:26:57;;;;;;;;;;;;;;;53.84;11.95;96799.47;6172210;28;19984;-72
2023/08/05 06:30:00;;;;;;;;;;;;;;;54.65;11.54;96793.06;6172268;28;19956;-72
2023/08/05 06:33:03;;;;;;;;;;;;;;;56.43;9.12;96799.91;6172117;28;19930;-72
2023/08/05 06:36:06;;;;;;;;;;;;;;;58.15;8.96;96805.13;6157334;28;19922;-73
2023/08/05 06:39:09;;;;;;;;;;;;;;;58.32;8.74;96806.22;6168146;28;19976;-72
2023/08/05 06:42:13;;;;;;;;;;;;;;;58.69;8.94;96797.03;6175863;28;19993;-72
2023/08/05 06:45:16;;;;;;;;;;;;;;;59.98;8.57;96807.75;6201917;28;19932;-72
2023/08/05 06:48:20;;;;;;;;;;;;;;;58.51;8.46;96797.19;6189585;28;20327;-72
2023/08/05 06:51:23;;;;;;;;;;;;;;;57.26;9.24;96787.31;6185261;28;20372;-72
2023/08/05 06:54:27;;;;;;;;;;;;;;;57.78;9.18;96790.34;6180872;28;19922;-72
2023/08/05 06:57:31;;;;;;;;;;;;;;;59.61;8.49;96793.66;6204238;28;19926;-72
2023/08/05 07:00:37;;;;;;;;;;;;;;;59.95;7.87;96797.25;6189558;28;19930;-72
2023/08/05 07:03:44;;;;;;;;;;;;;;;60.33;8.71;96787.75;6172235;28;19910;-72
2023/08/05 07:07:01;;;;;;;;;;;;;;;60.94;6.58;96786.72;6189938;28;19933;-72
2023/08/05 07:10:36;;;;;;;;;;;;;;;61.62;7.91;96791.91;6183345;28;19926;-72
2023/08/05 07:13:44;;;;;;;;;;;;;;;61.43;6.33;96787.00;6177185;28;19930;-73
2023/08/05 07:16:48;;;;;;;;;;;;;;;59.47;7.63;96763.41;6189364;28;19959;-72
2023/08/05 07:19:51;;;;;;;;;;;;;;;57.54;8.28;96746.00;6179767;28;19926;-73
2023/08/05 07:22:55;;;;;;;;;;;;;;;56.20;9.28;96741.78;6176089;28;20000;-72
2023/08/05 07:26:01;;;;;;;;;;;;;;;57.79;9.03;96741.03;6176031;28;20016;-73
2023/08/05 07:29:05;;;;;;;;;;;;;;;59.65;7.63;96749.78;6197389;28;19906;-72
2023/08/05 07:32:09;;;;;;;;;;;;;;;60.22;7.46;96750.97;6173686;28;19941;-72
2023/08/05 07:35:38;;;;;;;;;;;;;;;61.59;6.82;96757.81;6172594;28;19926;-72
2023/08/05 07:53:00;;;;;;;;;;;;;;;61.98;6.09;96739.03;6482959;23;19920;-72
2023/08/05 07:56:13;;;;;;;;;;;;;;;59.84;6.93;96722.72;6181066;28;19952;-72
2023/08/05 07:59:19;;;;;;;;;;;;;;;56.44;8.34;96697.78;6159028;29;20017;-72
2023/08/05 08:02:24;;;;;;;;;;;;;;;56.29;8.07;96696.22;6151223;29;20095;-72
2023/08/05 08:05:28;;;;;;;;;;;;;;;56.25;8.62;96690.53;6151148;29;20021;-73
2023/08/05 08:08:32;;;;;;;;;;;;;;;56.70;7.78;96687.28;6151204;29;20301;-73
2023/08/05 08:11:36;;;;;;;;;;;;;;;58.26;7.96;96683.25;6118581;29;19926;-73
2023/08/05 08:14:40;;;;;;;;;;;;;;;59.80;6.71;96685.09;6151817;29;19933;-73
2023/08/05 08:17:44;;;;;;;;;;;;;;;60.84;6.61;96692.63;6175385;29;19930;-73
2023/08/05 08:20:51;;;;;;;;;;;;;;;61.91;6.68;96689.53;6179077;29;19997;-72
2023/08/05 08:23:59;;;;;;;;;;;;;;;61.98;5.65;96705.66;6164441;29;19989;-73
2023/08/05 08:27:02;;;;;;;;;;;;;;;61.29;5.94;96700.66;6162387;29;19935;-71
2023/08/05 08:30:06;;;;;;;;;;;;;;;60.73;6.00;96686.38;6180720;29;19958;-72
2023/08/05 08:33:12;;;;;;;;;;;;;;;59.87;6.58;96679.31;6149234;29;20404;-73
2023/08/05 08:36:14;;;;;;;;;;;;;;;59.61;6.28;96663.06;6133774;29;20009;-73
2023/08/05 08:39:22;;;;;;;;;;;;;;;58.75;7.05;96664.13;6151008;29;20039;-72
2023/08/05 08:42:27;;;;;;;;;;;;;;;59.74;6.49;96656.38;6134019;29;19961;-73
2023/08/05 08:45:33;;;;;;;;;;;;;;;57.84;7.11;96656.88;6150328;29;19926;-72
2023/08/05 08:48:37;;;;;;;;;;;;;;;52.94;9.69;96640.91;6133631;29;19926;-72
2023/08/05 08:51:44;;;;;;;;;;;;;;;47.67;12.61;96627.56;6149859;29;19933;-74
2023/08/05 08:54:56;;;;;;;;;;;;;;;44.34;14.41;96629.72;6149897;29;19926;-73
2023/08/05 08:58:00;;;;;;;;;;;;;;;42.13;15.82;96625.31;6149913;29;19926;-72
2023/08/05 09:01:02;;;;;;;;;;;;;;;40.61;16.92;96617.44;6150044;29;19949;-73
2023/08/05 09:04:07;;;;;;;;;;;;;;;40.30;16.99;96613.50;6149703;29;19926;-73
2023/08/05 09:07:13;;;;;;;;;;;;;;;41.57;16.05;96623.66;6149471;28;20408;-73
2023/08/05 09:10:19;;;;;;;;;;;;;;;42.56;15.57;96636.00;6132625;29;20296;-73
2023/08/05 09:13:23;;;;;;;;;;;;;;;40.88;18.64;96624.25;6149718;29;19926;-72
2023/08/05 09:16:26;;;;;;;;;;;;;;;37.69;22.32;96613.59;6149735;29;20393;-74
2023/08/05 09:19:30;;;;;;;;;;;;;;;35.54;23.81;96617.84;6149494;29;19929;-73
2023/08/05 09:22:34;;;;;;;;;;;;;;;34.78;24.44;96610.72;6149388;29;20452;-73
2023/08/05 09:25:40;;;;;;;;;;;;;;;34.62;24.27;96617.13;6131964;29;20344;-74
2023/08/05 09:28:46;;;;;;;;;;;;;;;34.84;24.18;96620.63;6149193;29;20305;-72
2023/08/05 09:31:54;;;;;;;;;;;;;;;34.92;24.19;96621.22;6131375;29;20023;-74
2023/08/05 09:34:58;;;;;;;;;;;;;;;35.00;24.12;96628.97;6149323;29;20072;-74
2023/08/05 09:38:03;;;;;;;;;;;;;;;35.07;23.96;96622.19;6149134;29;19926;-74
2023/08/05 09:41:09;;;;;;;;;;;;;;;38.61;20.23;96639.84;6149105;29;19926;-73
2023/08/05 09:44:13;;;;;;;;;;;;;;;43.06;16.89;96658.09;6131146;29;19937;-73
2023/08/05 09:47:20;;;;;;;;;;;;;;;44.20;15.89;96657.59;6148781;29;19927;-73
2023/08/05 09:50:24;;;;;;;;;;;;;;;42.48;18.05;96653.34;6132088;29;19926;-73
2023/08/05 09:53:29;;;;;;;;;;;;;;;41.34;18.51;96631.75;6130986;29;20954;-74
2023/08/05 09:56:32;;;;;;;;;;;;;;;41.20;18.64;96625.38;6148996;29;20317;-73
2023/08/05 09:59:41;;;;;;;;;;;;;;;42.60;17.93;96642.53;6149075;29;20397;-73
2023/08/05 10:02:47;;;;;;;;;;;;;;;45.12;15.91;96659.50;6148415;29;19926;-73
2023/08/05 10:05:50;;;;;;;;;;;;;;;46.63;14.79;96666.66;6148557;29;19982;-73
2023/08/05 10:08:56;;;;;;;;;;;;;;;45.42;15.74;96664.06;6148497;29;19929;-72
2023/08/05 10:11:58;;;;;;;;;;;;;;;42.24;18.14;96654.38;6147805;29;19926;-72
2023/08/05 10:15:04;;;;;;;;;;;;;;;39.72;20.35;96642.81;6148584;29;19929;-73
2023/08/05 10:18:14;;;;;;;;;;;;;;;37.84;22.42;96647.59;6148441;29;20013;-73
2023/08/05 10:21:51;;;;;;;;;;;;;;;36.27;25.28;96641.78;6147797;28;19922;-73
2023/08/05 10:24:53;;;;;;;;;;;;;;;34.82;27.17;96633.75;6095692;29;19926;-74
2023/08/05 10:27:59;;;;;;;;;;;;;;;35.48;26.69;96638.06;6147481;29;19927;-73
2023/08/05 10:31:05;;;;;;;;;;;;;;;38.03;24.08;96634.13;6148256;29;19926;-73
2023/08/05 10:34:16;;;;;;;;;;;;;;;39.91;22.03;96631.84;6148256;29;20044;-73
2023/08/05 10:37:40;;;;;;;;;;;;;;;41.01;20.80;96640.00;6131120;29;19937;-73
2023/08/05 10:40:41;;;;;;;;;;;;;;;42.57;19.58;96641.22;6147254;29;20005;-73
2023/08/05 10:43:47;;;;;;;;;;;;;;;44.87;17.49;96641.72;6148274;29;19926;-73
2023/08/05 10:46:51;;;;;;;;;;;;;;;46.24;16.10;96650.06;6147979;29;19927;-72
2023/08/05 10:49:57;;;;;;;;;;;;;;;47.34;15.14;96649.91;6148073;29;20017;-71
2023/08/05 10:53:02;;;;;;;;;;;;;;;48.05;15.20;96647.97;6130390;29;20219;-72
2023/08/05 10:56:12;;;;;;;;;;;;;;;46.84;15.56;96655.59;6147906;29;19927;-72
2023/08/05 10:59:19;;;;;;;;;;;;;;;45.32;15.90;96656.06;6147943;29;19926;-72
2023/08/05 11:02:23;;;;;;;;;;;;;;;42.84;17.21;96656.13;6147874;29;19927;-71
2023/08/05 11:05:27;;;;;;;;;;;;;;;40.96;19.00;96653.88;6131136;29;19933;-74
2023/08/05 11:08:34;;;;;;;;;;;;;;;39.27;20.66;96658.63;6147779;29;20308;-72
2023/08/05 11:11:39;;;;;;;;;;;;;;;37.97;21.91;96658.84;6131090;29;20002;-71
2023/08/05 11:14:43;;;;;;;;;;;;;;;36.90;23.71;96645.22;6147607;29;19926;-72
2023/08/05 11:17:53;;;;;;;;;;;;;;;36.22;23.56;96655.47;6130234;29;19942;-72
2023/08/05 11:20:57;;;;;;;;;;;;;;;35.86;24.09;96652.53;6147387;29;19931;-72
2023/08/05 11:24:02;;;;;;;;;;;;;;;35.30;24.59;96651.09;6147444;29;19934;-72
2023/08/05 11:27:06;;;;;;;;;;;;;;;34.99;24.94;96650.00;6147728;29;19926;-73
2023/08/05 11:30:14;;;;;;;;;;;;;;;34.79;25.29;96650.66;6147723;28;19926;-72
2023/08/05 11:33:18;;;;;;;;;;;;;;;34.68;25.50;96648.06;6151611;29;19926;-73
2023/08/05 11:36:23;;;;;;;;;;;;;;;34.60;25.67;96654.84;6151289;29;19922;-73
2023/08/05 11:39:27;;;;;;;;;;;;;;;34.58;25.68;96644.16;6150676;29;20029;-73
2023/08/05 11:42:32;;;;;;;;;;;;;;;34.48;26.07;96640.47;6152002;29;19926;-73
2023/08/05 11:45:36;;;;;;;;;;;;;;;35.57;24.57;96643.91;6152018;29;20316;-72
2023/08/05 11:48:42;;;;;;;;;;;;;;;36.37;23.49;96653.56;6151665;29;19926;-74
2023/08/05 11:51:46;;;;;;;;;;;;;;;36.03;23.66;96647.69;6133359;29;19926;-73
2023/08/05 11:54:59;;;;;;;;;;;;;;;35.52;24.48;96658.34;6150979;29;19933;-72
2023/08/05 11:58:04;;;;;;;;;;;;;;;34.85;25.21;96655.09;6150562;29;20329;-73
2023/08/05 12:01:07;;;;;;;;;;;;;;;34.32;25.75;96651.25;6151537;29;20313;-73
2023/08/05 12:04:14;;;;;;;;;;;;;;;34.09;26.02;96656.97;6134270;29;19926;-73
2023/08/05 12:07:21;;;;;;;;;;;;;;;33.96;26.08;96663.59;6151108;29;20013;-73
2023/08/05 12:10:22;;;;;;;;;;;;;;;33.89;26.27;96652.88;6149886;29;20304;-73
2023/08/05 12:13:23;;;;;;;;;;;;;;;33.83;26.57;96653.06;6150274;29;19932;-73
2023/08/05 12:16:28;;;;;;;;;;;;;;;33.73;26.51;96653.75;6149971;29;19926;-74
2023/08/05 12:19:35;;;;;;;;;;;;;;;33.77;26.24;96657.63;6150763;29;19926;-72
2023/08/05 12:22:39;;;;;;;;;;;;;;;33.89;26.50;96650.16;6149565;29;19927;-73
2023/08/05 12:25:45;;;;;;;;;;;;;;;33.92;26.37;96651.56;6150774;29;20017;-73
2023/08/05 12:28:49;;;;;;;;;;;;;;;33.62;26.83;96657.41;6150729;29;19926;-73
2023/08/05 12:31:53;;;;;;;;;;;;;;;33.16;27.14;96646.63;6150676;29;20283;-72
2023/08/05 12:34:54;;;;;;;;;;;;;;;32.64;28.00;96647.66;6149959;29;19926;-72
2023/08/05 12:37:58;;;;;;;;;;;;;;;32.26;28.34;96647.44;6133461;29;19948;-73
2023/08/05 12:41:01;;;;;;;;;;;;;;;31.81;29.24;96661.75;6150373;29;20072;-73
2023/08/05 12:44:02;;;;;;;;;;;;;;;31.43;29.54;96655.75;6148993;28;19953;-72
2023/08/05 12:47:09;;;;;;;;;;;;;;;31.07;29.43;96648.63;6133662;29;19981;-73
2023/08/05 12:50:15;;;;;;;;;;;;;;;30.90;30.68;96647.66;6150257;29;19982;-73
2023/08/05 12:53:19;;;;;;;;;;;;;;;30.73;30.16;96648.31;6128673;29;20017;-73
2023/08/05 12:56:20;;;;;;;;;;;;;;;30.37;30.37;96647.34;6126269;29;19931;-72
2023/08/05 12:59:22;;;;;;;;;;;;;;;30.04;30.98;96655.94;6124832;29;19927;-73
2023/08/05 13:02:27;;;;;;;;;;;;;;;29.69;32.32;96658.41;6125607;29;19930;-72
2023/08/05 13:05:29;;;;;;;;;;;;;;;29.29;33.04;96658.81;6124699;29;20420;-73
2023/08/05 13:08:30;;;;;;;;;;;;;;;29.08;33.16;96660.06;6125492;29;20312;-73
2023/08/05 13:11:34;;;;;;;;;;;;;;;28.96;33.68;96665.34;6108652;29;19999;-72
2023/08/05 13:14:37;;;;;;;;;;;;;;;28.90;32.88;96660.78;6125187;29;19927;-72
2023/08/05 13:17:41;;;;;;;;;;;;;;;29.20;33.35;96665.56;6108426;29;19927;-72
2023/08/05 13:20:42;;;;;;;;;;;;;;;29.84;32.34;96675.16;6125418;29;19926;-74
2023/08/05 13:23:47;;;;;;;;;;;;;;;30.61;31.29;96671.88;6125080;29;20514;-73
2023/08/05 13:26:48;;;;;;;;;;;;;;;31.05;30.78;96662.44;6124444;29;20360;-72
2023/08/05 13:29:49;;;;;;;;;;;;;;;31.15;30.54;96677.34;6125077;29;19927;-72
2023/08/05 13:32:55;;;;;;;;;;;;;;;31.38;30.24;96687.44;6125028;29;19989;-73
2023/08/05 13:35:59;;;;;;;;;;;;;;;31.57;30.46;96680.00;6124715;29;19927;-71
2023/08/05 13:39:03;;;;;;;;;;;;;;;31.94;29.99;96686.00;6125510;29;20414;-72
2023/08/05 13:42:07;;;;;;;;;;;;;;;32.23;29.76;96686.88;6125154;29;20270;-72
2023/08/05 13:45:10;;;;;;;;;;;;;;;32.34;29.64;96690.63;6125169;29;19937;-72
2023/08/05 13:48:14;;;;;;;;;;;;;;;31.86;30.27;96705.38;6125364;29;20429;-72
2023/08/05 13:51:20;;;;;;;;;;;;;;;31.20;31.98;96701.94;6125321;29;19930;-72
2023/08/05 13:54:23;;;;;;;;;;;;;;;30.59;33.31;96691.13;6124285;29;19926;-72
2023/08/05 13:57:30;;;;;;;;;;;;;;;30.06;33.56;96701.81;6124854;29;19923;-73
2023/08/05 14:00:36;;;;;;;;;;;;;;;29.83;35.39;96697.91;6124923;29;19923;-73
2023/08/05 14:03:43;;;;;;;;;;;;;;;29.14;35.49;96688.97;6124813;29;20189;-72
2023/08/05 14:06:49;;;;;;;;;;;;;;;28.84;36.32;96694.16;6124985;29;20045;-73
2023/08/05 14:09:55;;;;;;;;;;;;;;;28.58;36.98;96696.00;6108309;29;19931;-72
2023/08/05 14:13:01;;;;;;;;;;;;;;;28.43;37.76;96698.19;6125157;29;19934;-73
2023/08/05 14:16:07;;;;;;;;;;;;;;;28.20;37.79;96704.91;6123963;29;20182;-73
2023/08/05 14:19:14;;;;;;;;;;;;;;;27.85;39.11;96700.88;6124631;29;20393;-72
2023/08/05 14:22:19;;;;;;;;;;;;;;;27.41;39.79;96707.81;6124428;29;19926;-73
2023/08/05 14:25:20;;;;;;;;;;;;;;;27.24;40.78;96716.34;6124383;29;19931;-72
2023/08/05 14:28:22;;;;;;;;;;;;;;;27.27;40.00;96715.94;6124370;29;20021;-72
2023/08/05 14:31:25;;;;;;;;;;;;;;;27.31;39.55;96719.84;6123338;29;19973;-73
2023/08/05 14:34:26;;;;;;;;;;;;;;;27.35;39.88;96716.75;6123422;29;20389;-72
2023/08/05 14:37:31;;;;;;;;;;;;;;;27.28;39.59;96716.75;6124185;29;19926;-71
2023/08/05 14:40:37;;;;;;;;;;;;;;;27.30;39.52;96720.91;6124286;29;20078;-73
2023/08/05 14:43:40;;;;;;;;;;;;;;;27.20;39.63;96716.97;6124068;29;20078;-72
2023/08/05 14:46:44;;;;;;;;;;;;;;;27.10;40.35;96711.94;6124123;29;19954;-71
2023/08/05 14:49:46;;;;;;;;;;;;;;;26.91;40.25;96710.91;6124090;29;19922;-73
2023/08/05 14:52:50;;;;;;;;;;;;;;;26.74;40.73;96712.34;6123968;29;19931;-72
2023/08/05 14:56:00;;;;;;;;;;;;;;;26.55;41.04;96705.84;6124130;29;19933;-72
2023/08/05 14:59:01;;;;;;;;;;;;;;;26.36;41.15;96713.66;6123303;29;19926;-73
2023/08/05 15:02:07;;;;;;;;;;;;;;;26.17;41.46;96709.03;6123623;29;19927;-72
2023/08/05 15:05:09;;;;;;;;;;;;;;;26.03;41.94;96712.72;6122681;29;20428;-72
2023/08/05 15:08:11;;;;;;;;;;;;;;;25.94;41.71;96710.19;6127371;29;19927;-72
2023/08/05 15:11:14;;;;;;;;;;;;;;;25.88;41.71;96715.56;6128289;29;20324;-71
2023/08/05 15:14:20;;;;;;;;;;;;;;;25.83;42.13;96716.16;6128349;29;19942;-73
2023/08/05 15:17:23;;;;;;;;;;;;;;;25.80;41.95;96713.00;6127909;29;19922;-73
2023/08/05 15:20:27;;;;;;;;;;;;;;;25.72;42.82;96711.28;6126952;29;19926;-73
2023/08/05 15:23:31;;;;;;;;;;;;;;;25.60;42.87;96710.19;6126979;29;19927;-71
2023/08/05 15:26:36;;;;;;;;;;;;;;;25.54;41.91;96715.31;6120457;29;19926;-71
2023/08/05 15:29:43;;;;;;;;;;;;;;;25.45;42.49;96716.53;6127723;29;20305;-73
2023/08/05 15:32:44;;;;;;;;;;;;;;;25.35;42.96;96709.81;6127675;29;19926;-73
2023/08/05 15:35:47;;;;;;;;;;;;;;;25.24;42.85;96713.88;6127484;29;19934;-73
2023/08/05 15:38:49;;;;;;;;;;;;;;;25.13;43.06;96708.97;6127433;29;20313;-72
2023/08/05 15:41:53;;;;;;;;;;;;;;;25.03;43.14;96725.47;6127181;29;19933;-72
2023/08/05 15:44:54;;;;;;;;;;;;;;;24.90;43.57;96718.09;6126639;29;19931;-72
2023/08/05 15:47:56;;;;;;;;;;;;;;;24.82;44.36;96720.94;6125571;29;20322;-72
2023/08/05 15:51:03;;;;;;;;;;;;;;;24.70;44.19;96722.47;6129284;29;20333;-72
2023/08/05 15:54:07;;;;;;;;;;;;;;;24.53;43.82;96728.09;6150812;29;20317;-72
2023/08/05 15:57:08;;;;;;;;;;;;;;;24.45;44.85;96720.16;6150291;28;19932;-73
2023/08/05 16:00:10;;;;;;;;;;;;;;;24.34;44.86;96734.06;6149360;29;20392;-71
2023/08/05 16:03:11;;;;;;;;;;;;;;;24.20;45.65;96727.69;6150169;28;19934;-73
2023/08/05 16:06:13;;;;;;;;;;;;;;;24.11;45.49;96731.50;6149488;29;20304;-71
2023/08/05 16:09:19;;;;;;;;;;;;;;;24.01;47.42;96734.50;6151215;28;19933;-72
2023/08/05 16:12:25;;;;;;;;;;;;;;;23.94;46.61;96733.56;6150948;28;19926;-72
2023/08/05 16:15:30;;;;;;;;;;;;;;;23.80;47.37;96739.78;6151121;28;19927;-72